メインページ
METAR-TAF:

METAR-TAF

空港 :

東京国際空港

東京 / 羽田国際空港, 日本

緯度: 35-33N, 経度: 139-47E, 海抜: 5m

現時点の気象観測

当レポートは36分前の03:30(UTC)に作成
変向風 1kt
気温 23°C
湿度 41%
気圧 1018 hPa
視程10km以上
高度2500ftの雲はほとんどない

METAR: RJTT 220330Z VRB01KT 9999 FEW025 23/09 Q1018 BECMG 12005KT

時間: 13:06 (04:06 UTC)

予報

当レポートは5時間1分前の23:05(UTC)に作成
予報は22日の 00時(UTC)から 23日の 06時(UTC)まで有効
東/南東の風 8kt
視程10km以上
高度3000ftの雲はほとんどない
22日の 04時(UTC)から 22日の 06時(UTC)まで徐々に
の風 10kt
22日の 12時(UTC)から 22日の 15時(UTC)まで徐々に
東/南東の風 6kt
22日の 18時(UTC)から 22日の 21時(UTC)まで徐々に
北東の風 6kt
23日の 03時(UTC)から 23日の 06時(UTC)まで一時的に
視程: 4000m
高度500ftの雲はほとんどない
高度800ftの千切れ雲あり
にわか雨, 靄

TAF: RJTT 212305Z 2200/2306 12008KT 9999 FEW030 BECMG 2204/2206 18010KT BECMG 2212/2215 12006KT BECMG 2218/2221 05006KT TEMPO 2303/2306 4000 SHRA BR FEW005 BKN008

4,000以上の空港の気象観測と天気予報(METAR報とTAF報)

利用可能な観測所は地図上に黄色い丸と赤い丸で示す。

丸の上にカーソルを重ねると観測所名を参照できる。

次にクリックすると気象観測と天気予報を参照できる。

マップの切り替え:黒色「×」印の緑ボタンをクリックして拡大、「-」印の緑ボタンをクリックして縮小、緑色の三角印をクリックして隣りの地図に切り替え


METAR-TAF: